createdAt,value
2024-04-24T00:03:30.899Z,-15.3354
2024-04-24T00:13:39.756Z,-15.4242
2024-04-24T00:23:48.549Z,-15.4572
2024-04-24T00:34:09.772Z,-15.5341
2024-04-24T00:44:18.383Z,-15.5941
2024-04-24T00:54:27.090Z,-15.6346
2024-04-24T01:04:36.776Z,-15.7462
2024-04-24T01:14:45.295Z,-15.8679
2024-04-24T01:25:06.465Z,-16.1078
2024-04-24T01:35:27.705Z,-16.5051
2024-04-24T01:45:36.434Z,-17.0645
2024-04-24T01:55:46.060Z,-17.7566
2024-04-24T02:05:54.644Z,-18.5121
2024-04-24T02:16:15.838Z,-19.2370
2024-04-24T02:26:37.020Z,-19.9199
2024-04-24T02:36:45.626Z,-20.5605
2024-04-24T02:46:54.556Z,-21.0955
2024-04-24T02:57:15.758Z,-21.5367
2024-04-24T03:07:24.379Z,-21.7825
2024-04-24T03:17:34.304Z,-21.7774
2024-04-24T03:27:43.011Z,-21.6329
2024-04-24T03:38:04.179Z,-21.3280
2024-04-24T03:48:25.559Z,-21.0151
2024-04-24T03:58:34.621Z,-20.7000
2024-04-24T04:08:43.220Z,-20.3856
2024-04-24T04:18:53.008Z,-20.0434
2024-04-24T04:29:05.962Z,-19.7772
2024-04-24T04:39:15.709Z,-19.5084
2024-04-24T04:49:24.505Z,-19.2524
2024-04-24T04:59:34.169Z,-19.0014
2024-04-24T05:09:42.796Z,-18.7225
2024-04-24T05:20:04.330Z,-18.3553
2024-04-24T05:30:13.190Z,-17.9569
2024-04-24T05:40:24.196Z,-17.5031
2024-04-24T05:50:33.095Z,-17.0138
2024-04-24T06:00:42.145Z,-16.4535
2024-04-24T06:11:00.721Z,-15.7715
2024-04-24T06:21:09.900Z,-15.0389
2024-04-24T06:31:18.848Z,-14.1414
2024-04-24T06:41:27.896Z,-13.0817
2024-04-24T06:51:39.080Z,-11.8115
2024-04-24T07:01:48.368Z,-10.4527
2024-04-24T07:12:04.922Z,-8.8555
2024-04-24T07:22:16.456Z,-7.0631
2024-04-24T07:32:25.232Z,-4.9763
2024-04-24T07:42:33.995Z,-2.5357
2024-04-24T07:52:45.364Z,-0.2354
2024-04-24T08:02:54.477Z,2.0941
2024-04-24T08:13:10.426Z,4.2870
2024-04-24T08:23:24.002Z,6.0845
2024-04-24T08:33:34.512Z,8.7769
2024-04-24T08:43:43.350Z,13.1729
2024-04-24T08:53:59.078Z,18.4310
2024-04-24T09:04:08.281Z,23.1845
2024-04-24T09:14:17.521Z,26.4828
2024-04-24T09:24:26.606Z,29.4642
2024-04-24T09:34:36.416Z,32.3087
2024-04-24T09:44:45.720Z,34.0757
2024-04-24T09:54:55.403Z,35.3814
2024-04-24T10:05:04.348Z,36.7935
2024-04-24T10:15:13.297Z,36.2991
2024-04-24T10:25:23.083Z,34.3800
2024-04-24T10:35:32.012Z,31.9081
2024-04-24T10:45:42.651Z,28.9166
2024-04-24T10:55:52.021Z,25.8490
2024-04-24T11:06:00.995Z,23.1490
2024-04-24T11:16:11.276Z,20.9814
2024-04-24T11:26:20.270Z,19.4907
2024-04-24T11:36:29.119Z,18.4741
2024-04-24T11:46:38.724Z,17.5918
2024-04-24T11:56:47.356Z,17.0772
2024-04-24T12:06:56.023Z,17.0493
2024-04-24T12:17:04.950Z,17.4448
2024-04-24T12:27:13.736Z,17.8884
2024-04-24T12:37:34.990Z,17.6823
2024-04-24T12:47:43.999Z,16.9859
2024-04-24T12:57:52.763Z,16.4434
2024-04-24T13:08:14.030Z,15.7601
2024-04-24T13:18:23.476Z,15.1783
2024-04-24T13:28:33.087Z,15.4115
2024-04-24T13:38:54.318Z,16.5772
2024-04-24T13:49:03.394Z,17.5005
2024-04-24T13:59:13.277Z,17.8073
2024-04-24T14:09:22.272Z,17.5259
2024-04-24T14:19:31.163Z,16.7729
2024-04-24T14:29:39.977Z,15.6600
2024-04-24T14:39:48.861Z,14.6206
2024-04-24T14:50:01.618Z,13.8575
2024-04-24T15:00:10.531Z,13.2008
2024-04-24T15:10:19.352Z,12.5467
2024-04-24T15:20:40.601Z,12.0548
2024-04-24T15:30:49.584Z,11.8090
2024-04-24T15:40:58.381Z,11.6315
2024-04-24T15:51:19.599Z,11.3048
2024-04-24T16:01:28.563Z,10.7518
2024-04-24T16:11:37.511Z,10.0394
2024-04-24T16:21:46.447Z,9.0583
2024-04-24T16:31:55.286Z,7.7730
2024-04-24T16:42:03.800Z,6.4369
2024-04-24T16:52:25.033Z,5.3866
2024-04-24T17:02:34.039Z,4.5330
2024-04-24T17:12:42.938Z,3.8282
2024-04-24T17:22:51.818Z,3.1639
2024-04-24T17:33:00.722Z,2.2437
2024-04-24T17:43:09.702Z,1.1662
2024-04-24T17:53:18.426Z,0.0558
2024-04-24T18:03:39.715Z,-0.9959
2024-04-24T18:13:48.692Z,-2.0332
2024-04-24T18:23:57.476Z,-3.0093
2024-04-24T18:34:18.711Z,-4.0158
2024-04-24T18:44:40.085Z,-4.9818
2024-04-24T18:54:48.880Z,-5.7777
2024-04-24T19:05:00.030Z,-6.3811
2024-04-24T19:15:08.805Z,-6.8907
2024-04-24T19:25:30.136Z,-7.4926
2024-04-24T19:35:38.955Z,-8.2470
2024-04-24T19:45:47.941Z,-9.0532
2024-04-24T19:55:56.729Z,-9.7403
2024-04-24T20:06:05.370Z,-10.3234
2024-04-24T20:16:14.196Z,-10.7214
2024-04-24T20:26:35.586Z,-11.0688
2024-04-24T20:36:44.484Z,-11.3907
2024-04-24T20:46:53.265Z,-11.6265
2024-04-24T20:57:14.482Z,-11.8586
2024-04-24T21:07:23.203Z,-12.1690
2024-04-24T21:17:32.028Z,-12.5645
2024-04-24T21:27:40.841Z,-12.9625
2024-04-24T21:37:49.430Z,-13.4239
2024-04-24T21:48:10.700Z,-14.0391
2024-04-24T21:58:31.955Z,-14.7419
2024-04-24T22:08:40.743Z,-15.2772
2024-04-24T22:18:49.791Z,-15.5231
2024-04-24T22:28:58.624Z,-15.5687
2024-04-24T22:39:07.259Z,-15.5611
2024-04-24T22:49:28.497Z,-15.4820
2024-04-24T22:59:37.328Z,-15.3304
2024-04-24T23:09:45.970Z,-15.2290
2024-04-24T23:20:07.252Z,-15.3081
2024-04-24T23:30:15.823Z,-15.5003
2024-04-24T23:40:24.507Z,-15.5636
2024-04-24T23:50:33.341Z,-15.5738
